Time;durP1;ratioP1;P1;durP2;ratioP2;P2;SDS_P1;SDS_P2;PMS_P1;PMS_P2;Temp;Humidity;BMP_temperature;BMP_pressure;BME280_temperature;BME280_humidity;BME280_pressure;Samples;Min_cycle;Max_cycle;Signal;HPM_P1;HPM_P2
2023/03/26 00:00:52;;;;;;;9.27;1.02;;;;;14.70;100503.00;;;;5006998;28;21063;-78
2023/03/26 00:03:21;;;;;;;5.13;1.05;;;;;14.70;100499.00;;;;5009533;28;20251;-78
2023/03/26 00:05:48;;;;;;;5.55;0.90;;;;;14.70;100496.00;;;;5008186;28;20647;-78
2023/03/26 00:08:17;;;;;;;4.90;0.88;;;;;14.70;100508.00;;;;5007917;28;20193;-78
2023/03/26 00:10:46;;;;;;;6.47;1.20;;;;;14.70;100501.00;;;;5009589;28;20200;-78
2023/03/26 00:13:13;;;;;;;5.63;1.70;;;;;14.80;100498.00;;;;5007051;28;20208;-78
2023/03/26 00:15:41;;;;;;;7.07;1.15;;;;;14.80;100498.00;;;;4992033;28;20208;-78
2023/03/26 00:18:08;;;;;;;5.78;1.30;;;;;14.80;100499.00;;;;5004604;28;20213;-78
2023/03/26 00:20:37;;;;;;;6.70;1.50;;;;;14.80;100498.00;;;;5003506;28;20197;-78
2023/03/26 00:23:04;;;;;;;8.85;1.50;;;;;14.80;100500.00;;;;5008256;28;20197;-78
2023/03/26 00:25:33;;;;;;;5.60;1.23;;;;;14.70;100487.00;;;;5006277;28;20224;-78
2023/03/26 00:28:08;;;;;;;8.65;1.65;;;;;14.70;100486.00;;;;5007525;28;20280;-78
2023/03/26 00:30:35;;;;;;;9.82;1.35;;;;;14.80;100478.00;;;;5006005;28;20200;-78
2023/03/26 00:33:03;;;;;;;8.35;1.92;;;;;14.80;100476.00;;;;5005186;28;20588;-77
2023/03/26 00:35:33;;;;;;;5.97;1.88;;;;;14.80;100479.00;;;;5001141;28;20198;-78
2023/03/26 00:38:00;;;;;;;7.82;1.60;;;;;14.80;100468.00;;;;4992384;28;20209;-79
2023/03/26 00:40:28;;;;;;;9.48;1.85;;;;;14.80;100463.00;;;;5008446;28;20217;-79
2023/03/26 00:42:55;;;;;;;6.28;1.27;;;;;14.80;100466.00;;;;5006364;28;20196;-79
2023/03/26 00:45:24;;;;;;;10.35;1.63;;;;;14.90;100463.00;;;;5007203;28;20204;-79
2023/03/26 00:47:51;;;;;;;8.50;1.88;;;;;14.90;100466.00;;;;5004998;28;20205;-79
2023/03/26 00:50:19;;;;;;;8.85;2.30;;;;;14.90;100464.00;;;;5007856;28;20195;-79
2023/03/26 00:52:46;;;;;;;10.05;1.70;;;;;14.90;100466.00;;;;4999176;28;20207;-79
2023/03/26 00:55:14;;;;;;;9.80;2.28;;;;;15.00;100461.00;;;;5007311;28;20204;-79
2023/03/26 00:57:44;;;;;;;9.95;2.30;;;;;15.00;100455.00;;;;5005847;28;20287;-79
2023/03/26 01:00:14;;;;;;;9.77;1.77;;;;;15.00;100452.00;;;;5007264;28;20224;-79
2023/03/26 01:02:44;;;;;;;7.70;1.92;;;;;15.00;100456.00;;;;5007764;28;20561;-79
2023/03/26 01:05:43;;;;;;;10.02;2.40;;;;;14.90;100451.00;;;;5005613;28;20248;-79
2023/03/26 01:08:21;;;;;;;7.20;1.90;;;;;15.00;100448.00;;;;5005728;28;20197;-79
2023/03/26 01:10:50;;;;;;;10.20;2.17;;;;;15.00;100444.00;;;;4998790;28;20224;-79
2023/03/26 01:13:19;;;;;;;8.32;2.30;;;;;15.00;100436.00;;;;5007851;28;20670;-79
2023/03/26 01:15:49;;;;;;;9.48;2.35;;;;;15.00;100438.00;;;;5007674;28;20201;-79
2023/03/26 01:18:20;;;;;;;17.85;2.13;;;;;15.00;100431.00;;;;5006795;28;20193;-79
2023/03/26 01:20:49;;;;;;;11.52;1.80;;;;;15.00;100424.00;;;;5007205;28;20194;-79
2023/03/26 01:23:24;;;;;;;10.40;1.83;;;;;15.00;100423.00;;;;5006661;28;20200;-79
2023/03/26 01:26:01;;;;;;;10.07;2.00;;;;;15.00;100417.00;;;;5003488;28;20220;-79
2023/03/26 01:28:32;;;;;;;10.55;2.90;;;;;15.00;100414.00;;;;4990203;28;20252;-79
2023/03/26 01:31:08;;;;;;;6.78;1.77;;;;;15.00;100414.00;;;;5006659;28;20279;-79
2023/03/26 01:33:42;;;;;;;11.15;2.30;;;;;15.00;100414.00;;;;5005646;28;20204;-79
2023/03/26 01:36:16;;;;;;;10.25;2.20;;;;;15.00;100411.00;;;;5007366;28;20689;-78
2023/03/26 01:38:53;;;;;;;15.65;3.00;;;;;15.00;100401.00;;;;5006750;28;20201;-79
2023/03/26 01:41:29;;;;;;;12.05;2.00;;;;;15.00;100394.00;;;;5007731;28;20201;-79
2023/03/26 01:44:04;;;;;;;9.35;1.98;;;;;15.00;100399.00;;;;4995779;28;20989;-79
2023/03/26 01:46:35;;;;;;;9.60;2.25;;;;;15.00;100393.00;;;;5002776;28;20224;-78
2023/03/26 01:49:04;;;;;;;11.25;1.85;;;;;15.00;100386.00;;;;5006857;28;20260;-79
2023/03/26 01:51:34;;;;;;;15.10;3.38;;;;;15.00;100387.00;;;;5006752;28;20204;-79
2023/03/26 01:54:03;;;;;;;13.02;2.20;;;;;15.10;100383.00;;;;5000341;28;20197;-79
2023/03/26 01:56:41;;;;;;;11.32;1.98;;;;;15.00;100372.00;;;;5007104;28;20197;-79
2023/03/26 01:59:18;;;;;;;11.32;2.80;;;;;15.10;100379.00;;;;5005691;28;20255;-80
2023/03/26 02:01:57;;;;;;;9.85;2.65;;;;;15.00;100371.00;;;;5006493;28;20193;-80
2023/03/26 02:04:32;;;;;;;13.90;2.33;;;;;15.10;100364.00;;;;4996106;28;20193;-80
2023/03/26 02:07:05;;;;;;;12.63;1.98;;;;;15.10;100363.00;;;;5009715;28;20239;-77
2023/03/26 02:09:37;;;;;;;10.55;2.22;;;;;15.10;100359.00;;;;5009585;28;20625;-77
2023/03/26 02:12:08;;;;;;;16.25;2.60;;;;;15.20;100355.00;;;;5009277;28;20674;-78
2023/03/26 02:14:36;;;;;;;7.50;2.10;;;;;15.20;100353.00;;;;5010402;28;20205;-77
2023/03/26 02:17:03;;;;;;;18.13;3.75;;;;;15.20;100347.00;;;;5009171;28;20213;-78
2023/03/26 02:19:31;;;;;;;16.67;2.80;;;;;15.20;100350.00;;;;5006726;28;20685;-78
2023/03/26 02:21:59;;;;;;;10.55;2.30;;;;;15.20;100345.00;;;;5009541;28;20200;-78
2023/03/26 02:24:27;;;;;;;9.25;1.92;;;;;15.20;100342.00;;;;5008440;28;20581;-78
2023/03/26 02:26:54;;;;;;;12.73;2.58;;;;;15.20;100339.00;;;;5009515;28;20260;-77
2023/03/26 02:29:25;;;;;;;14.88;2.10;;;;;15.20;100337.00;;;;5009055;28;20247;-77
2023/03/26 02:31:52;;;;;;;14.60;2.88;;;;;15.30;100339.00;;;;5008342;28;20244;-77
2023/03/26 02:34:20;;;;;;;16.63;3.63;;;;;15.20;100339.00;;;;5004454;28;20205;-77
2023/03/26 02:36:47;;;;;;;9.82;2.35;;;;;15.30;100337.00;;;;5006480;28;20247;-77
2023/03/26 02:39:14;;;;;;;8.48;3.03;;;;;15.30;100344.00;;;;5008416;28;20680;-78
2023/03/26 02:41:42;;;;;;;9.75;2.90;;;;;15.30;100336.00;;;;5007845;28;20189;-77
2023/03/26 02:44:09;;;;;;;20.15;2.83;;;;;15.30;100336.00;;;;5007971;28;20197;-77
2023/03/26 02:46:37;;;;;;;9.68;2.35;;;;;15.20;100330.00;;;;5006581;28;20228;-77
2023/03/26 02:49:05;;;;;;;13.45;3.13;;;;;15.30;100331.00;;;;5009527;28;20197;-77
2023/03/26 02:51:34;;;;;;;10.15;2.65;;;;;15.30;100317.00;;;;5000896;28;20202;-78
2023/03/26 02:54:02;;;;;;;10.90;2.72;;;;;15.30;100321.00;;;;5007820;28;20208;-78
2023/03/26 02:56:29;;;;;;;12.75;3.20;;;;;15.20;100322.00;;;;5007792;28;20681;-78
2023/03/26 02:58:57;;;;;;;12.85;2.45;;;;;15.20;100320.00;;;;5009570;28;20236;-78
2023/03/26 03:01:24;;;;;;;9.40;2.60;;;;;15.20;100322.00;;;;5010183;28;20208;-77
2023/03/26 03:03:53;;;;;;;14.70;3.15;;;;;15.20;100311.00;;;;5008557;28;20201;-77
2023/03/26 03:06:20;;;;;;;13.32;3.22;;;;;15.20;100311.00;;;;5009712;28;20318;-77
2023/03/26 03:08:48;;;;;;;10.90;3.13;;;;;15.20;100306.00;;;;5003124;28;20201;-78
2023/03/26 03:11:20;;;;;;;9.95;2.83;;;;;15.20;100310.00;;;;5010529;28;20205;-77
2023/03/26 03:13:48;;;;;;;9.73;3.38;;;;;15.30;100303.00;;;;5008878;28;20204;-77
2023/03/26 03:16:16;;;;;;;13.90;3.22;;;;;15.30;100305.00;;;;5010467;28;20192;-78
2023/03/26 03:18:43;;;;;;;16.10;3.75;;;;;15.30;100297.00;;;;5006517;28;20211;-78
2023/03/26 03:21:12;;;;;;;10.90;3.70;;;;;15.20;100299.00;;;;5009943;28;20204;-78
2023/03/26 03:23:39;;;;;;;21.17;4.75;;;;;15.20;100295.00;;;;5008144;28;20573;-78
2023/03/26 03:26:13;;;;;;;12.88;3.55;;;;;15.20;100293.00;;;;5008143;28;20197;-78
2023/03/26 03:28:40;;;;;;;16.95;4.20;;;;;15.20;100299.00;;;;5005861;28;20277;-78
2023/03/26 03:31:08;;;;;;;18.50;4.07;;;;;15.20;100296.00;;;;4990128;28;20248;-79
2023/03/26 03:33:35;;;;;;;10.55;3.53;;;;;15.20;100297.00;;;;4989943;28;20252;-78
2023/03/26 03:36:09;;;;;;;12.48;3.83;;;;;15.20;100290.00;;;;4990322;28;20213;-78
2023/03/26 03:38:38;;;;;;;9.05;2.72;;;;;15.20;100288.00;;;;4989940;28;20229;-79
2023/03/26 03:41:06;;;;;;;9.80;3.05;;;;;15.20;100285.00;;;;5009083;28;20204;-79
2023/03/26 03:43:33;;;;;;;9.45;3.35;;;;;15.20;100283.00;;;;4998135;28;20204;-78
2023/03/26 03:46:01;;;;;;;9.18;3.60;;;;;15.20;100283.00;;;;5008971;28;20192;-79
2023/03/26 03:48:29;;;;;;;19.20;4.60;;;;;15.20;100277.00;;;;5008413;28;20213;-78
2023/03/26 03:50:57;;;;;;;14.15;4.57;;;;;15.20;100275.00;;;;5007562;28;20209;-78
2023/03/26 03:53:25;;;;;;;18.55;5.50;;;;;15.20;100265.00;;;;5008884;28;20223;-78
2023/03/26 03:55:55;;;;;;;15.88;4.68;;;;;15.10;100266.00;;;;5006981;28;20625;-79
2023/03/26 03:58:24;;;;;;;15.20;5.28;;;;;15.20;100267.00;;;;5006756;28;20229;-78
2023/03/26 04:00:52;;;;;;;16.98;5.13;;;;;15.20;100251.00;;;;5006719;28;20224;-78
2023/03/26 04:03:20;;;;;;;13.63;4.85;;;;;15.20;100255.00;;;;5007290;28;20204;-79
2023/03/26 04:05:53;;;;;;;13.20;4.97;;;;;15.20;100254.00;;;;5006977;28;20197;-79
2023/03/26 04:08:21;;;;;;;13.32;4.05;;;;;15.20;100258.00;;;;5007606;28;20224;-78
2023/03/26 04:10:48;;;;;;;11.73;4.32;;;;;15.20;100254.00;;;;5007569;28;20205;-79
2023/03/26 04:13:18;;;;;;;12.95;4.20;;;;;15.20;100252.00;;;;5008176;28;20193;-78
2023/03/26 04:15:45;;;;;;;15.38;4.63;;;;;15.20;100247.00;;;;5005824;28;20201;-79
2023/03/26 04:18:12;;;;;;;12.75;4.30;;;;;15.30;100247.00;;;;5004873;28;20204;-79
2023/03/26 04:20:45;;;;;;;13.52;4.70;;;;;15.30;100239.00;;;;5007997;28;20197;-79
2023/03/26 04:23:13;;;;;;;19.33;5.00;;;;;15.30;100239.00;;;;5008792;28;20232;-78
2023/03/26 04:25:42;;;;;;;11.05;4.20;;;;;15.30;100236.00;;;;5007735;28;20208;-78
2023/03/26 04:28:14;;;;;;;16.35;5.25;;;;;15.30;100226.00;;;;5006627;28;20231;-78
2023/03/26 04:30:43;;;;;;;17.52;4.70;;;;;15.30;100221.00;;;;5006683;28;20193;-79
2023/03/26 04:33:14;;;;;;;14.38;5.00;;;;;15.30;100216.00;;;;5005023;28;20623;-79
2023/03/26 04:35:43;;;;;;;13.13;4.07;;;;;15.30;100210.00;;;;5007594;28;20301;-78
2023/03/26 04:38:11;;;;;;;9.88;4.18;;;;;15.30;100213.00;;;;5008055;28;20295;-79
2023/03/26 04:40:41;;;;;;;14.63;4.80;;;;;15.40;100210.00;;;;5006976;28;20958;-78
2023/03/26 04:43:12;;;;;;;12.43;4.60;;;;;15.30;100205.00;;;;5007202;28;20209;-79
2023/03/26 04:45:39;;;;;;;15.60;4.38;;;;;15.40;100201.00;;;;5006914;28;20217;-79
2023/03/26 04:48:13;;;;;;;17.00;4.22;;;;;15.30;100191.00;;;;5006948;28;20232;-79
2023/03/26 04:50:41;;;;;;;9.02;3.85;;;;;15.40;100190.00;;;;5001948;28;20228;-79
2023/03/26 04:53:14;;;;;;;9.07;3.47;;;;;15.30;100186.00;;;;5007214;28;20292;-79
2023/03/26 04:55:47;;;;;;;10.15;3.75;;;;;15.30;100185.00;;;;5007102;28;20212;-79
2023/03/26 04:58:15;;;;;;;15.00;5.07;;;;;15.30;100181.00;;;;5006597;28;20221;-79
2023/03/26 05:00:43;;;;;;;14.57;4.10;;;;;15.30;100182.00;;;;5006124;28;20729;-79
2023/03/26 05:03:12;;;;;;;8.63;4.45;;;;;15.30;100175.00;;;;5006878;28;20201;-79
2023/03/26 05:05:40;;;;;;;10.65;3.70;;;;;15.30;100172.00;;;;5006976;28;20214;-79
2023/03/26 05:08:07;;;;;;;13.25;4.47;;;;;15.30;100173.00;;;;4994940;28;20229;-79
2023/03/26 05:10:35;;;;;;;11.95;4.93;;;;;15.30;100169.00;;;;5001438;28;20201;-79
2023/03/26 05:13:02;;;;;;;15.38;3.70;;;;;15.30;100174.00;;;;5005359;28;20212;-79
2023/03/26 05:15:30;;;;;;;10.50;3.45;;;;;15.30;100166.00;;;;5003324;28;20212;-79
2023/03/26 05:17:57;;;;;;;16.63;4.28;;;;;15.30;100168.00;;;;5004847;28;20208;-79
2023/03/26 05:20:29;;;;;;;10.98;4.32;;;;;15.30;100161.00;;;;5006374;28;20201;-79
2023/03/26 05:22:57;;;;;;;14.95;4.05;;;;;15.30;100156.00;;;;5005544;28;20200;-79
2023/03/26 05:25:24;;;;;;;16.50;4.40;;;;;15.30;100148.00;;;;5005711;28;20578;-79
2023/03/26 05:27:52;;;;;;;10.35;3.92;;;;;15.30;100146.00;;;;5005403;28;20236;-79
2023/03/26 05:30:20;;;;;;;18.02;3.55;;;;;15.30;100139.00;;;;5006210;28;20220;-79
2023/03/26 05:32:49;;;;;;;11.98;3.75;;;;;15.30;100134.00;;;;5007471;28;20200;-79
2023/03/26 05:35:17;;;;;;;15.65;4.40;;;;;15.30;100144.00;;;;5009177;28;20189;-79
2023/03/26 05:37:46;;;;;;;11.07;3.92;;;;;15.30;100138.00;;;;5011125;28;20197;-78
2023/03/26 05:40:15;;;;;;;10.40;4.00;;;;;15.30;100133.00;;;;5009062;28;20916;-79
2023/03/26 05:42:44;;;;;;;8.75;3.58;;;;;15.20;100131.00;;;;5008318;28;20248;-78
2023/03/26 05:45:13;;;;;;;12.45;3.42;;;;;15.20;100124.00;;;;5010704;28;20205;-78
2023/03/26 05:47:40;;;;;;;11.68;3.88;;;;;15.20;100125.00;;;;5010881;28;20232;-78
2023/03/26 05:50:09;;;;;;;12.40;3.90;;;;;15.20;100117.00;;;;5009480;28;20208;-79
2023/03/26 05:52:37;;;;;;;8.75;2.88;;;;;15.20;100118.00;;;;5011072;28;20207;-79
2023/03/26 05:55:07;;;;;;;13.15;4.10;;;;;15.20;100123.00;;;;5011036;28;20583;-78
2023/03/26 05:57:34;;;;;;;10.48;3.08;;;;;15.20;100111.00;;;;5010338;28;20227;-78
2023/03/26 06:00:03;;;;;;;14.27;3.67;;;;;15.20;100099.00;;;;5000529;28;20228;-78
2023/03/26 06:02:30;;;;;;;15.43;4.10;;;;;15.20;100102.00;;;;5011089;28;20255;-78
2023/03/26 06:04:57;;;;;;;14.75;3.95;;;;;15.10;100109.00;;;;5007450;28;20201;-79
2023/03/26 06:07:25;;;;;;;10.77;3.55;;;;;15.10;100104.00;;;;5006636;28;20232;-78
2023/03/26 06:09:53;;;;;;;9.73;3.75;;;;;15.10;100108.00;;;;5008623;28;20207;-79
2023/03/26 06:12:22;;;;;;;13.82;3.55;;;;;15.10;100093.00;;;;5002372;28;20292;-78
2023/03/26 06:14:49;;;;;;;11.63;3.17;;;;;15.10;100098.00;;;;5005680;28;20648;-80
2023/03/26 06:17:16;;;;;;;13.27;4.00;;;;;15.10;100089.00;;;;5008444;28;20204;-81
2023/03/26 06:19:44;;;;;;;12.45;3.58;;;;;15.10;100087.00;;;;5005413;28;20666;-80
2023/03/26 06:22:11;;;;;;;15.85;3.67;;;;;15.10;100080.00;;;;5008468;28;20200;-79
2023/03/26 06:24:38;;;;;;;14.35;3.72;;;;;15.10;100079.00;;;;5005454;28;20204;-80
2023/03/26 06:27:12;;;;;;;12.20;3.03;;;;;15.10;100085.00;;;;5006734;28;20205;-81
2023/03/26 06:29:40;;;;;;;17.00;3.78;;;;;15.10;100079.00;;;;5004373;28;20563;-80
2023/03/26 06:32:07;;;;;;;11.25;4.07;;;;;15.20;100074.00;;;;5004307;28;20201;-79
2023/03/26 06:34:35;;;;;;;7.78;3.45;;;;;15.20;100070.00;;;;5000512;28;20679;-80
2023/03/26 06:37:02;;;;;;;12.00;4.15;;;;;15.20;100065.00;;;;5004031;28;20890;-79
2023/03/26 06:39:30;;;;;;;8.40;3.03;;;;;15.20;100073.00;;;;5007126;28;20205;-79
2023/03/26 06:41:57;;;;;;;12.75;3.80;;;;;15.20;100075.00;;;;5010443;28;20201;-79
2023/03/26 06:44:24;;;;;;;12.57;4.00;;;;;15.20;100074.00;;;;5009340;28;20193;-79
2023/03/26 06:46:53;;;;;;;16.33;3.55;;;;;15.20;100074.00;;;;5009574;28;20686;-77
2023/03/26 06:49:21;;;;;;;11.80;3.70;;;;;15.20;100069.00;;;;5004736;28;20225;-79
2023/03/26 06:51:48;;;;;;;9.07;3.75;;;;;15.20;100070.00;;;;5007894;28;20189;-80
2023/03/26 06:54:15;;;;;;;12.00;3.60;;;;;15.20;100070.00;;;;5007546;28;20208;-81
2023/03/26 06:56:43;;;;;;;9.38;3.40;;;;;15.20;100067.00;;;;5008934;28;20666;-81
2023/03/26 06:59:11;;;;;;;10.75;3.22;;;;;15.20;100070.00;;;;5006279;28;20236;-80
2023/03/26 07:01:38;;;;;;;12.98;3.55;;;;;15.20;100075.00;;;;5002165;28;20379;-80
2023/03/26 07:04:07;;;;;;;11.20;3.17;;;;;15.30;100068.00;;;;5002226;28;20212;-81
2023/03/26 07:06:34;;;;;;;9.60;3.67;;;;;15.30;100073.00;;;;4999490;28;20209;-81
2023/03/26 07:09:01;;;;;;;11.68;3.20;;;;;15.30;100068.00;;;;5007943;28;20228;-82
2023/03/26 07:11:29;;;;;;;9.48;3.00;;;;;15.30;100063.00;;;;5006997;28;20197;-82
2023/03/26 07:13:58;;;;;;;10.90;3.85;;;;;15.30;100059.00;;;;5008229;28;20204;-80
2023/03/26 07:16:25;;;;;;;9.95;2.55;;;;;15.30;100064.00;;;;5007352;28;20573;-81
2023/03/26 07:18:54;;;;;;;8.45;3.13;;;;;15.30;100065.00;;;;5005967;28;20209;-81
2023/03/26 07:21:23;;;;;;;7.55;3.38;;;;;15.30;100062.00;;;;5003770;28;20215;-80
2023/03/26 07:23:51;;;;;;;9.48;2.95;;;;;15.30;100073.00;;;;4998328;28;20216;-81
2023/03/26 07:26:26;;;;;;;11.77;3.13;;;;;15.30;100064.00;;;;5007172;28;20208;-81
2023/03/26 07:28:59;;;;;;;6.72;2.05;;;;;15.30;100063.00;;;;5005830;28;20294;-82
2023/03/26 07:31:34;;;;;;;11.82;2.40;;;;;15.40;100059.00;;;;5006592;28;20200;-81
2023/03/26 07:34:07;;;;;;;14.38;3.20;;;;;15.40;100052.00;;;;5008722;28;20291;-81
2023/03/26 07:36:42;;;;;;;7.03;2.22;;;;;15.40;100059.00;;;;5005678;28;20197;-81
2023/03/26 07:39:22;;;;;;;8.35;2.67;;;;;15.50;100052.00;;;;5008100;28;20223;-82
2023/03/26 07:41:55;;;;;;;12.88;3.30;;;;;15.50;100052.00;;;;5002845;28;20212;-81
2023/03/26 07:44:37;;;;;;;6.40;2.13;;;;;15.50;100058.00;;;;5006998;28;20200;-81
2023/03/26 07:47:17;;;;;;;8.25;2.35;;;;;15.60;100054.00;;;;5005964;28;20201;-81
2023/03/26 07:49:45;;;;;;;11.63;2.42;;;;;15.70;100055.00;;;;4991693;28;20710;-80
2023/03/26 07:52:14;;;;;;;9.35;2.30;;;;;15.70;100053.00;;;;5002608;28;20208;-81
2023/03/26 07:54:42;;;;;;;10.85;2.53;;;;;15.70;100042.00;;;;5001648;28;20208;-82
2023/03/26 07:57:19;;;;;;;11.68;2.60;;;;;15.70;100048.00;;;;5004968;28;20198;-81
2023/03/26 07:59:52;;;;;;;9.35;2.47;;;;;15.80;100050.00;;;;5004618;28;20240;-85
2023/03/26 08:02:34;;;;;;;11.48;3.03;;;;;15.80;100044.00;;;;5004915;28;21059;-81
2023/03/26 08:05:17;;;;;;;10.27;2.70;;;;;15.80;100046.00;;;;5006066;28;20197;-82
2023/03/26 08:07:58;;;;;;;10.55;2.42;;;;;15.80;100051.00;;;;5006986;28;20192;-81
2023/03/26 08:10:33;;;;;;;9.43;2.42;;;;;16.00;100045.00;;;;5009426;28;20261;-81
2023/03/26 08:13:09;;;;;;;11.27;2.20;;;;;16.00;100039.00;;;;5007891;28;20211;-81
2023/03/26 08:15:42;;;;;;;8.10;2.30;;;;;16.10;100044.00;;;;4999648;28;20283;-82
2023/03/26 08:18:27;;;;;;;5.00;1.58;;;;;16.00;100043.00;;;;5008374;28;20201;-82
2023/03/26 08:20:58;;;;;;;13.20;2.55;;;;;16.10;100045.00;;;;5005396;28;20254;-82
2023/03/26 08:23:32;;;;;;;9.75;1.98;;;;;16.10;100052.00;;;;5007047;28;20231;-82
2023/03/26 08:26:05;;;;;;;9.05;2.53;;;;;16.20;100051.00;;;;5008234;28;20197;-81
2023/03/26 08:28:47;;;;;;;6.00;2.30;;;;;16.10;100047.00;;;;5008081;28;20233;-81
2023/03/26 08:31:18;;;;;;;8.70;1.83;;;;;16.20;100056.00;;;;5002004;28;20240;-81
2023/03/26 08:33:45;;;;;;;12.25;2.78;;;;;16.20;100042.00;;;;4995428;28;20197;-82
2023/03/26 08:36:13;;;;;;;11.65;2.80;;;;;16.20;100045.00;;;;5007187;28;20209;-82
2023/03/26 08:38:41;;;;;;;4.88;1.92;;;;;16.20;100045.00;;;;5004846;28;20193;-81
2023/03/26 08:42:06;;;;;;;8.30;2.30;;;;;16.10;100043.00;;;;5002140;28;20212;-83
2023/03/26 08:45:05;;;;;;;12.20;3.00;;;;;16.10;100049.00;;;;4942084;28;20745;-82
2023/03/26 08:48:17;;;;;;;10.15;2.85;;;;;16.10;100042.00;;;;4987917;28;20908;-83
2023/03/26 08:51:09;;;;;;;8.82;2.95;;;;;16.10;100036.00;;;;4990696;28;20216;-82
2023/03/26 08:54:09;;;;;;;6.18;2.30;;;;;16.10;100044.00;;;;5006779;28;20197;-82
2023/03/26 08:56:51;;;;;;;13.48;3.40;;;;;16.10;100051.00;;;;5006397;28;20678;-82
2023/03/26 08:59:50;;;;;;;11.38;2.90;;;;;16.00;100045.00;;;;5007977;28;20229;-82
2023/03/26 09:02:49;;;;;;;10.02;2.92;;;;;16.10;100043.00;;;;5005936;28;21006;-82
2023/03/26 09:05:46;;;;;;;9.23;3.10;;;;;16.10;100039.00;;;;5004116;28;20213;-82
2023/03/26 09:08:39;;;;;;;12.85;3.63;;;;;16.00;100045.00;;;;5008557;28;20232;-82
2023/03/26 09:11:31;;;;;;;9.82;3.53;;;;;16.00;100036.00;;;;5010081;28;20205;-82
2023/03/26 09:14:29;;;;;;;7.40;2.75;;;;;16.10;100045.00;;;;4999827;28;20208;-82
2023/03/26 09:17:26;;;;;;;9.52;3.03;;;;;16.00;100036.00;;;;4992453;28;20194;-81
2023/03/26 09:20:24;;;;;;;7.38;2.58;;;;;16.00;100040.00;;;;4985517;28;20204;-82
2023/03/26 09:23:15;;;;;;;9.68;2.90;;;;;16.00;100041.00;;;;5002067;28;20197;-82
2023/03/26 09:26:03;;;;;;;6.53;2.45;;;;;16.00;100040.00;;;;5011152;28;20197;-81
2023/03/26 09:29:06;;;;;;;9.05;3.17;;;;;15.90;100036.00;;;;5009124;28;20602;-81
2023/03/26 09:32:11;;;;;;;9.90;2.40;;;;;15.90;100035.00;;;;5007473;28;20217;-81
2023/03/26 09:35:07;;;;;;;9.40;2.35;;;;;15.80;100033.00;;;;4994242;28;20196;-81
2023/03/26 09:37:50;;;;;;;7.07;2.67;;;;;15.90;100040.00;;;;4998411;28;20197;-81
2023/03/26 09:40:21;;;;;;;7.45;2.00;;;;;15.90;100041.00;;;;4996712;28;20208;-80
2023/03/26 09:42:55;;;;;;;5.57;2.60;;;;;15.90;100044.00;;;;5010596;28;20561;-80
2023/03/26 09:45:45;;;;;;;6.38;2.47;;;;;15.80;100041.00;;;;5011493;28;20196;-80
2023/03/26 09:48:47;;;;;;;4.03;1.80;;;;;15.80;100049.00;;;;5011066;28;20205;-80
2023/03/26 09:51:34;;;;;;;4.88;2.13;;;;;15.80;100054.00;;;;5011040;28;20319;-81
2023/03/26 09:54:15;;;;;;;4.18;1.67;;;;;15.90;100050.00;;;;5005483;28;20201;-80
2023/03/26 09:56:56;;;;;;;3.47;1.60;;;;;15.90;100047.00;;;;5006674;28;20222;-80
2023/03/26 09:59:55;;;;;;;1.98;1.30;;;;;15.80;100051.00;;;;5010901;28;20244;-80
2023/03/26 10:02:52;;;;;;;5.07;1.70;;;;;15.80;100056.00;;;;5004312;28;20246;-80
2023/03/26 10:05:44;;;;;;;2.65;1.63;;;;;15.80;100057.00;;;;5010533;28;20200;-80
2023/03/26 10:08:34;;;;;;;5.55;1.80;;;;;15.80;100062.00;;;;5011005;28;20208;-80
2023/03/26 10:11:09;;;;;;;4.97;1.73;;;;;15.90;100066.00;;;;5010656;28;20621;-80
2023/03/26 10:13:49;;;;;;;4.55;2.20;;;;;15.80;100070.00;;;;5008057;28;20200;-80
2023/03/26 10:16:23;;;;;;;2.85;1.60;;;;;15.80;100076.00;;;;5008682;28;21083;-81
2023/03/26 10:19:06;;;;;;;4.70;1.98;;;;;15.80;100066.00;;;;5009912;28;20208;-80
2023/03/26 10:21:42;;;;;;;6.95;2.03;;;;;15.80;100077.00;;;;5008991;28;20296;-80
2023/03/26 10:24:36;;;;;;;2.42;1.60;;;;;15.70;100077.00;;;;5010906;28;20666;-80
2023/03/26 10:27:15;;;;;;;1.77;1.15;;;;;15.80;100077.00;;;;5008392;28;20205;-80
2023/03/26 10:30:17;;;;;;;2.45;1.50;;;;;15.80;100076.00;;;;5009780;28;20220;-80
2023/03/26 10:32:57;;;;;;;2.92;1.55;;;;;15.80;100076.00;;;;5000842;28;20201;-80
2023/03/26 10:35:39;;;;;;;2.72;1.58;;;;;15.80;100082.00;;;;5009023;28;20642;-80
2023/03/26 10:38:18;;;;;;;4.43;2.53;;;;;15.80;100086.00;;;;5009126;28;20738;-79
2023/03/26 10:40:54;;;;;;;3.30;2.63;;;;;15.90;100084.00;;;;5009541;28;20581;-80
2023/03/26 10:43:48;;;;;;;4.15;2.20;;;;;15.90;100082.00;;;;5009315;28;20279;-80
2023/03/26 10:46:37;;;;;;;5.20;2.42;;;;;15.80;100083.00;;;;5009378;28;20243;-80
2023/03/26 10:49:40;;;;;;;2.42;1.33;;;;;15.70;100089.00;;;;4998118;28;20722;-79
2023/03/26 10:52:14;;;;;;;2.80;1.42;;;;;15.80;100094.00;;;;5006008;28;20201;-80
2023/03/26 10:54:54;;;;;;;4.43;1.90;;;;;15.80;100095.00;;;;5008572;28;20235;-79
2023/03/26 10:57:39;;;;;;;6.00;2.90;;;;;15.70;100096.00;;;;5010677;28;20207;-80
2023/03/26 11:00:16;;;;;;;6.95;2.28;;;;;15.70;100096.00;;;;5008583;28;20229;-80
2023/03/26 11:02:54;;;;;;;12.73;3.75;;;;;15.70;100098.00;;;;5010675;28;20560;-80
2023/03/26 11:05:45;;;;;;;8.00;3.95;;;;;15.60;100105.00;;;;5006776;28;20223;-80
2023/03/26 11:08:19;;;;;;;8.07;3.78;;;;;15.60;100100.00;;;;5008289;28;20203;-79
2023/03/26 11:10:57;;;;;;;8.82;3.88;;;;;15.50;100103.00;;;;5008953;28;20662;-80
2023/03/26 11:13:38;;;;;;;6.07;3.42;;;;;15.50;100103.00;;;;5009097;28;20692;-79
2023/03/26 11:16:11;;;;;;;4.78;3.35;;;;;15.60;100107.00;;;;5008893;28;20201;-80
2023/03/26 11:18:47;;;;;;;6.38;3.35;;;;;15.50;100108.00;;;;5007680;28;20193;-79
2023/03/26 11:21:23;;;;;;;5.63;3.25;;;;;15.50;100110.00;;;;5004245;28;20209;-79
2023/03/26 11:24:23;;;;;;;8.00;3.17;;;;;15.50;100113.00;;;;4996805;28;20193;-79
2023/03/26 11:26:55;;;;;;;4.25;2.83;;;;;15.50;100111.00;;;;5009513;28;20203;-79
2023/03/26 11:29:39;;;;;;;4.80;2.35;;;;;15.40;100115.00;;;;5009187;28;20217;-80
2023/03/26 11:32:11;;;;;;;5.03;2.92;;;;;15.40;100122.00;;;;5009323;28;20678;-80
2023/03/26 11:34:41;;;;;;;6.10;2.67;;;;;15.50;100125.00;;;;5007119;28;20198;-80
2023/03/26 11:37:16;;;;;;;6.40;2.35;;;;;15.40;100125.00;;;;4999231;28;20193;-80
2023/03/26 11:39:50;;;;;;;6.95;2.38;;;;;15.40;100126.00;;;;5008365;28;20303;-79
2023/03/26 11:42:22;;;;;;;8.10;2.88;;;;;15.30;100133.00;;;;5007784;28;20200;-79
2023/03/26 11:44:55;;;;;;;9.55;2.00;;;;;15.30;100125.00;;;;5009050;28;20658;-79
2023/03/26 11:47:26;;;;;;;4.05;2.17;;;;;15.20;100128.00;;;;5009384;28;20228;-80
2023/03/26 11:49:57;;;;;;;5.97;2.75;;;;;15.20;100132.00;;;;5008599;28;20580;-79
2023/03/26 11:52:25;;;;;;;10.93;2.40;;;;;15.20;100133.00;;;;5008632;28;20674;-79
2023/03/26 11:54:53;;;;;;;6.30;2.33;;;;;15.20;100136.00;;;;5004845;28;20212;-79
2023/03/26 11:57:25;;;;;;;4.40;2.15;;;;;15.20;100138.00;;;;5008034;28;20328;-79
2023/03/26 11:59:57;;;;;;;6.70;2.35;;;;;15.20;100147.00;;;;5008591;28;20239;-80
2023/03/26 12:02:31;;;;;;;5.05;1.85;;;;;15.20;100144.00;;;;5007961;28;20586;-79
2023/03/26 12:05:17;;;;;;;6.47;2.15;;;;;15.00;100153.00;;;;4996823;28;20815;-80
2023/03/26 12:07:52;;;;;;;7.03;2.13;;;;;15.10;100153.00;;;;5008883;28;20224;-80
2023/03/26 12:10:25;;;;;;;8.63;2.13;;;;;15.00;100158.00;;;;5006956;28;20235;-80
2023/03/26 12:12:56;;;;;;;7.32;2.35;;;;;15.10;100152.00;;;;5006716;28;20306;-80
2023/03/26 12:15:24;;;;;;;6.78;2.80;;;;;15.10;100155.00;;;;5008284;28;20567;-80
2023/03/26 12:17:55;;;;;;;5.45;1.88;;;;;15.10;100157.00;;;;5008664;28;20204;-79
2023/03/26 12:20:41;;;;;;;6.18;2.20;;;;;14.90;100162.00;;;;5008124;28;20287;-79
2023/03/26 12:23:34;;;;;;;7.20;2.35;;;;;14.90;100169.00;;;;5007862;28;20689;-80
2023/03/26 12:26:12;;;;;;;6.10;2.45;;;;;15.00;100169.00;;;;4998737;28;20205;-80
2023/03/26 12:28:45;;;;;;;6.75;1.88;;;;;15.00;100169.00;;;;5008161;28;20223;-81
2023/03/26 12:31:16;;;;;;;9.00;1.88;;;;;15.00;100173.00;;;;5006507;28;20209;-80
2023/03/26 12:33:45;;;;;;;9.38;2.42;;;;;15.00;100179.00;;;;5008344;28;20205;-80
2023/03/26 12:36:22;;;;;;;5.40;2.00;;;;;15.00;100173.00;;;;5006519;28;20744;-80